Time;durP1;ratioP1;P1;durP2;ratioP2;P2;SDS_P1;SDS_P2;PMS_P1;PMS_P2;Temp;Humidity;BMP_temperature;BMP_pressure;BME280_temperature;BME280_humidity;BME280_pressure;Samples;Min_cycle;Max_cycle;Signal;HPM_P1;HPM_P2
2022/08/27 04:15:44;;;;;;;33.72;16.20;;;;;;;19.23;100.00;99960.81;5796956;23;20168;-62
2022/08/27 04:18:11;;;;;;;40.22;15.88;;;;;;;19.28;100.00;99962.81;4973026;28;20039;-62
2022/08/27 04:20:37;;;;;;;37.47;16.50;;;;;;;19.24;100.00;99963.31;4972299;28;20037;-63
2022/08/27 04:23:04;;;;;;;34.25;15.88;;;;;;;19.30;100.00;99969.66;4972977;28;20046;-63
2022/08/27 04:25:29;;;;;;;37.43;17.10;;;;;;;19.28;100.00;99968.22;4969945;28;20035;-63
2022/08/27 04:27:55;;;;;;;43.38;17.58;;;;;;;19.31;100.00;99973.16;4953614;28;20309;-63
2022/08/27 04:30:21;;;;;;;41.20;16.92;;;;;;;19.31;100.00;99973.16;4982243;23;20047;-63
2022/08/27 04:32:46;;;;;;;41.10;16.52;;;;;;;19.24;100.00;99967.91;4972771;28;20035;-64
2022/08/27 04:35:11;;;;;;;41.75;17.90;;;;;;;19.26;100.00;99971.16;4972659;28;20471;-66
2022/08/27 04:37:37;;;;;;;37.85;16.25;;;;;;;19.29;100.00;99976.09;4972626;28;20037;-65
2022/08/27 04:40:04;;;;;;;34.78;16.33;;;;;;;19.32;100.00;99980.22;4969058;28;20075;-65
2022/08/27 04:42:30;;;;;;;40.78;16.25;;;;;;;19.31;100.00;99978.56;4953338;28;20077;-67
2022/08/27 04:44:55;;;;;;;36.20;15.45;;;;;;;19.29;100.00;99981.47;4953341;29;20059;-65
2022/08/27 04:47:20;;;;;;;39.85;17.08;;;;;;;19.28;100.00;99981.72;4953239;28;20054;-65
2022/08/27 04:49:47;;;;;;;40.67;17.08;;;;;;;19.25;100.00;99980.34;4953000;28;20039;-65
2022/08/27 04:52:12;;;;;;;36.97;16.17;;;;;;;19.25;100.00;99978.44;4953177;28;20404;-65
2022/08/27 04:54:38;;;;;;;40.05;17.20;;;;;;;19.30;100.00;99982.31;4953147;28;20106;-66
2022/08/27 04:57:05;;;;;;;36.65;16.77;;;;;;;19.34;100.00;99978.09;4953171;28;20054;-65
2022/08/27 04:59:31;;;;;;;36.67;17.20;;;;;;;19.37;100.00;99980.31;4952867;28;20039;-65
2022/08/27 05:01:58;;;;;;;34.92;15.82;;;;;;;19.34;100.00;99984.31;4953074;28;20123;-65
2022/08/27 05:04:23;;;;;;;33.47;15.80;;;;;;;19.28;100.00;99984.44;4951995;28;20492;-65
2022/08/27 05:06:49;;;;;;;47.28;18.65;;;;;;;19.29;100.00;99991.47;4953124;28;20043;-66
2022/08/27 05:09:16;;;;;;;40.28;17.02;;;;;;;19.23;100.00;99982.44;4952984;28;20036;-67
2022/08/27 05:11:42;;;;;;;39.20;17.13;;;;;;;19.22;100.00;99987.00;4953409;28;20039;-65
2022/08/27 05:14:12;;;;;;;73.00;28.88;;;;;;;19.24;100.00;99990.31;4953620;28;20176;-68
2022/08/27 05:16:38;;;;;;;46.47;20.40;;;;;;;19.24;100.00;99984.91;4953097;28;20046;-68
2022/08/27 05:19:09;;;;;;;43.63;17.83;;;;;;;19.28;100.00;99981.72;4952751;28;20031;-67
2022/08/27 05:21:37;;;;;;;46.13;20.63;;;;;;;19.33;100.00;99992.66;4952971;28;20042;-68
2022/08/27 05:24:03;;;;;;;;;;;;;;;19.31;100.00;99995.59;4952118;28;20039;-68
2022/08/27 05:26:31;;;;;;;47.45;19.48;;;;;;;19.32;100.00;99993.72;4952887;29;19921;-67
2022/08/27 05:29:00;;;;;;;48.53;20.75;;;;;;;19.35;100.00;99990.53;4952806;28;20039;-67
2022/08/27 05:31:28;;;;;;;39.17;18.05;;;;;;;19.36;100.00;99984.06;4952586;28;20126;-67
2022/08/27 05:33:56;;;;;;;40.42;17.30;;;;;;;19.32;100.00;99988.31;4956298;28;20484;-68
2022/08/27 05:36:30;;;;;;;38.53;16.63;;;;;;;19.33;100.00;99988.06;4956624;28;20039;-68
2022/08/27 05:38:58;;;;;;;38.92;16.60;;;;;;;19.37;100.00;99985.72;4956613;28;20388;-68
2022/08/27 05:41:27;;;;;;;34.88;17.15;;;;;;;19.40;100.00;99985.25;4956252;28;20063;-67
2022/08/27 05:43:54;;;;;;;36.25;16.02;;;;;;;19.39;100.00;99981.72;4956364;28;20510;-67
2022/08/27 05:46:21;;;;;;;42.42;17.42;;;;;;;19.46;100.00;99990.50;4956306;28;20062;-68
2022/08/27 05:48:48;;;;;;;38.38;16.35;;;;;;;19.48;100.00;99990.25;4956090;28;20110;-66
2022/08/27 05:51:19;;;;;;;39.90;17.33;;;;;;;19.52;100.00;99986.03;4955913;28;20039;-67
2022/08/27 05:53:46;;;;;;;42.95;16.70;;;;;;;19.57;100.00;99990.75;4956244;28;20461;-67
2022/08/27 05:56:14;;;;;;;41.78;17.80;;;;;;;19.61;100.00;99989.22;4956253;28;20180;-67
2022/08/27 06:01:25;;;;;;;40.45;17.80;;;;;;;19.64;100.00;99983.34;4955946;28;20035;-67
2022/08/27 06:03:51;;;;;;;40.55;17.77;;;;;;;19.66;100.00;99984.75;4956287;28;20090;-67
2022/08/27 06:06:17;;;;;;;32.72;14.93;;;;;;;19.69;100.00;99986.97;4956033;28;20066;-66
2022/08/27 06:08:43;;;;;;;35.65;16.23;;;;;;;19.72;100.00;99985.66;4954553;29;20497;-66
2022/08/27 06:11:10;;;;;;;39.92;17.30;;;;;;;19.74;100.00;99992.47;4956247;28;20114;-68
2022/08/27 06:13:36;;;;;;;42.22;17.15;;;;;;;19.78;100.00;99995.53;4955852;28;20082;-68
2022/08/27 06:16:08;;;;;;;43.08;18.05;;;;;;;19.83;100.00;99989.41;4955759;28;20039;-68
2022/08/27 06:18:39;;;;;;;47.90;19.30;;;;;;;19.84;100.00;99993.75;4955762;28;20043;-68
2022/08/27 06:21:06;;;;;;;38.67;19.25;;;;;;;19.90;100.00;99993.59;4955437;28;20051;-68
2022/08/27 06:23:32;;;;;;;45.97;20.05;;;;;;;19.89;100.00;99983.88;4955685;28;20047;-67
2022/08/27 06:25:59;;;;;;;55.70;23.60;;;;;;;19.91;100.00;99992.53;4954350;28;20039;-68
2022/08/27 06:28:30;;;;;;;43.38;20.13;;;;;;;19.93;100.00;99992.28;4955576;28;20045;-67
2022/08/27 06:31:23;;;;;;;37.72;16.38;;;;;;;19.97;100.00;99994.28;4955058;28;20501;-52
2022/08/27 06:33:50;;;;;;;45.25;19.13;;;;;;;19.98;100.00;99995.91;4954522;28;20051;-50
2022/08/27 06:36:21;;;;;;;53.00;19.50;;;;;;;20.01;100.00;99995.44;4955448;28;20039;-53
2022/08/27 06:38:47;;;;;;;41.22;18.85;;;;;;;20.00;100.00;99999.19;4955470;28;20046;-50
2022/08/27 06:41:14;;;;;;;46.33;19.33;;;;;;;19.99;100.00;99994.03;4956349;28;20035;-52
2022/08/27 06:43:41;;;;;;;44.03;18.77;;;;;;;20.02;100.00;99996.28;4956585;28;20294;-50
2022/08/27 06:46:09;;;;;;;44.35;19.95;;;;;;;19.99;100.00;99997.56;4955603;28;20749;-50
2022/08/27 06:48:35;;;;;;;46.38;18.77;;;;;;;19.98;100.00;99993.22;4954252;28;20404;-51
2022/08/27 06:51:13;;;;;;;42.03;16.95;;;;;;;20.02;100.00;100002.50;4954852;28;20039;-50
2022/08/27 06:53:39;;;;;;;43.92;17.73;;;;;;;20.06;100.00;100000.13;4955249;28;20114;-52
2022/08/27 06:56:05;;;;;;;47.40;18.98;;;;;;;20.07;100.00;99996.34;4954250;28;20118;-51
2022/08/27 06:58:33;;;;;;;48.92;19.65;;;;;;;20.05;100.00;99999.31;4954487;29;20470;-51
2022/08/27 07:00:58;;;;;;;;;;;;;;;20.08;100.00;100003.41;4955374;28;20039;-53
2022/08/27 07:03:24;;;;;;;40.00;16.60;;;;;;;20.12;100.00;100001.03;4955228;29;19914;-53
2022/08/27 07:05:49;;;;;;;40.67;15.65;;;;;;;20.11;100.00;100007.53;4953325;28;20059;-52
2022/08/27 07:08:15;;;;;;;45.05;17.67;;;;;;;20.15;100.00;100006.81;4954567;28;20536;-52
2022/08/27 07:10:41;;;;;;;45.42;18.23;;;;;;;20.18;100.00;100013.59;4953527;28;20093;-54
2022/08/27 07:13:07;;;;;;;47.03;19.27;;;;;;;20.19;100.00;100002.53;4954750;28;20397;-52
2022/08/27 07:15:33;;;;;;;52.10;19.30;;;;;;;20.19;100.00;100007.94;4954323;28;20051;-51
2022/08/27 07:17:59;;;;;;;41.15;17.13;;;;;;;20.18;100.00;100006.31;4953096;29;20062;-53
2022/08/27 07:20:24;;;;;;;41.63;18.38;;;;;;;20.15;100.00;100012.22;4953697;28;20374;-55
2022/08/27 07:22:52;;;;;;;38.38;17.30;;;;;;;20.16;100.00;100008.44;4954364;28;20047;-50
2022/08/27 07:25:19;;;;;;;41.42;17.10;;;;;;;20.10;100.00;100012.09;4954525;28;20035;-50
2022/08/27 07:27:46;;;;;;;44.47;16.77;;;;;;;20.12;100.00;100007.28;4954085;28;20063;-53
2022/08/27 07:30:14;;;;;;;44.63;18.42;;;;;;;20.10;100.00;100016.69;4953354;28;20077;-53
2022/08/27 07:32:44;;;;;;;41.80;15.77;;;;;;;20.15;100.00;100016.75;4954266;28;20118;-51
2022/08/27 07:35:10;;;;;;;40.03;16.40;;;;;;;20.09;100.00;100017.75;4954050;28;20039;-54
2022/08/27 07:37:36;;;;;;;50.63;17.60;;;;;;;20.11;100.00;100019.16;4954280;28;20559;-54
2022/08/27 07:40:09;;;;;;;39.03;17.27;;;;;;;20.14;100.00;100025.94;4952090;28;20098;-51
2022/08/27 07:45:18;;;;;;;46.05;19.02;;;;;;;20.12;100.00;100028.06;4954101;28;20408;-52
2022/08/27 07:47:45;;;;;;;50.33;18.55;;;;;;;20.15;100.00;100038.41;4952392;29;20122;-53
2022/08/27 07:50:10;;;;;;;43.67;17.67;;;;;;;20.18;100.00;100037.94;4953216;28;20075;-52
2022/08/27 07:52:36;;;;;;;45.28;17.23;;;;;;;20.16;100.00;100038.19;4953989;28;20070;-52
2022/08/27 07:55:01;;;;;;;48.90;17.20;;;;;;;20.14;100.00;100034.88;4953228;28;20138;-54
2022/08/27 07:57:27;;;;;;;39.80;15.75;;;;;;;20.16;100.00;100043.59;4953733;28;20130;-55
2022/08/27 07:59:52;;;;;;;43.53;16.92;;;;;;;20.16;100.00;100035.47;4953220;28;20042;-52
2022/08/27 08:02:18;;;;;;;45.65;17.73;;;;;;;20.11;100.00;100040.78;4952303;28;20062;-51
2022/08/27 08:04:44;;;;;;;41.22;16.23;;;;;;;20.15;100.00;100044.66;4953757;28;20039;-52
2022/08/27 08:07:10;;;;;;;44.33;17.30;;;;;;;20.18;100.00;100041.47;4953701;28;20468;-54
2022/08/27 08:09:36;;;;;;;36.25;16.23;;;;;;;20.16;100.00;100042.78;4952721;29;20378;-50
2022/08/27 08:12:02;;;;;;;34.30;16.27;;;;;;;20.14;100.00;100047.56;4953310;28;20489;-57
2022/08/27 08:14:30;;;;;;;35.55;15.15;;;;;;;20.15;100.00;100044.66;4953549;28;20404;-52
2022/08/27 08:17:00;;;;;;;35.67;15.20;;;;;;;20.13;100.00;100051.34;4953434;28;20039;-53
2022/08/27 08:19:26;;;;;;;36.15;16.40;;;;;;;20.15;100.00;100052.78;4951649;29;20135;-54
2022/08/27 08:21:52;;;;;;;31.30;14.07;;;;;;;20.12;100.00;100052.41;4953005;28;20076;-52
2022/08/27 08:24:18;;;;;;;30.52;13.63;;;;;;;19.99;100.00;100053.50;4953680;29;20031;-56
2022/08/27 08:26:43;;;;;;;34.80;15.90;;;;;;;20.04;100.00;100059.84;4952080;28;20505;-54
2022/08/27 08:29:09;;;;;;;35.38;14.45;;;;;;;20.08;100.00;100060.16;4952613;28;20074;-52
2022/08/27 08:31:35;;;;;;;33.97;14.55;;;;;;;20.00;100.00;100058.66;4953277;28;20527;-64
2022/08/27 08:34:01;;;;;;;34.22;15.38;;;;;;;20.03;100.00;100062.78;4953380;28;20071;-63
2022/08/27 08:36:27;;;;;;;36.80;14.80;;;;;;;19.97;100.00;100063.75;4953385;28;20039;-64
2022/08/27 08:38:52;;;;;;;32.75;13.85;;;;;;;19.94;100.00;100061.50;4953074;28;20094;-63
2022/08/27 08:41:27;;;;;;;31.35;14.55;;;;;;;19.95;100.00;100068.56;4953145;28;20035;-64
2022/08/27 08:43:54;;;;;;;29.20;13.65;;;;;;;19.91;100.00;100064.69;4953321;28;20043;-63
2022/08/27 08:46:24;;;;;;;33.47;14.00;;;;;;;19.93;100.00;100063.38;4953270;28;20041;-62
2022/08/27 08:48:56;;;;;;;33.92;15.63;;;;;;;19.93;100.00;100066.09;4953308;28;20066;-62
2022/08/27 08:51:28;;;;;;;32.97;14.30;;;;;;;19.94;100.00;100072.31;4953282;28;20077;-62
2022/08/27 08:54:04;;;;;;;29.13;13.85;;;;;;;19.90;100.00;100071.19;4953761;28;20039;-61
2022/08/27 08:56:51;;;;;;;31.80;15.13;;;;;;;19.86;100.00;100075.41;4953741;28;20039;-62
2022/08/27 08:59:28;;;;;;;33.33;13.98;;;;;;;19.80;100.00;100077.16;4953397;28;20124;-62
2022/08/27 09:01:53;;;;;;;;;;;;;;;19.90;100.00;100081.97;4954144;28;20118;-63
2022/08/27 09:04:21;;;;;;;23.90;12.70;;;;;;;19.89;100.00;100072.25;4953762;28;19997;-62
2022/08/27 09:06:57;;;;;;;33.03;14.35;;;;;;;19.76;100.00;100068.72;4955422;28;20082;-63
2022/08/27 09:09:37;;;;;;;35.55;14.13;;;;;;;19.87;100.00;100080.56;4956992;28;20059;-63
2022/08/27 09:12:13;;;;;;;37.75;14.63;;;;;;;19.67;100.00;100078.25;4956916;28;20489;-63
2022/08/27 09:14:49;;;;;;;33.20;13.82;;;;;;;19.68;100.00;100082.59;4957543;28;20035;-62
2022/08/27 09:17:15;;;;;;;32.13;14.18;;;;;;;19.72;100.00;100082.94;4957001;28;20074;-63
2022/08/27 09:19:41;;;;;;;33.78;15.02;;;;;;;19.54;100.00;100089.25;4956568;28;20078;-63
2022/08/27 09:22:17;;;;;;;33.20;14.67;;;;;;;19.66;100.00;100098.22;4956839;28;20063;-63
2022/08/27 09:25:10;;;;;;;33.40;14.43;;;;;;;19.57;100.00;100096.91;4956798;28;20035;-61
2022/08/27 09:27:40;;;;;;;30.88;13.85;;;;;;;19.56;100.00;100095.28;4955497;29;20043;-62
2022/08/27 09:30:12;;;;;;;37.13;14.38;;;;;;;19.52;100.00;100091.38;4956185;28;20567;-62
2022/08/27 09:32:38;;;;;;;32.25;13.68;;;;;;;19.44;100.00;100094.44;4956508;28;20039;-62
2022/08/27 09:35:07;;;;;;;32.13;13.05;;;;;;;19.46;100.00;100092.34;4956540;28;20047;-62
2022/08/27 09:37:40;;;;;;;33.65;14.35;;;;;;;19.37;100.00;100096.44;4956580;28;20031;-61
2022/08/27 09:40:12;;;;;;;42.55;14.90;;;;;;;19.38;100.00;100095.38;4955993;28;20046;-62
2022/08/27 09:42:51;;;;;;;40.85;13.15;;;;;;;19.44;100.00;100097.16;4956564;28;20358;-63
2022/08/27 09:45:26;;;;;;;36.45;14.73;;;;;;;19.39;100.00;100083.53;4955185;29;20039;-61
2022/08/27 09:48:01;;;;;;;37.20;15.70;;;;;;;19.43;100.00;100092.78;4956332;28;20054;-62
2022/08/27 09:50:38;;;;;;;37.55;14.93;;;;;;;19.51;100.00;100087.06;4955982;28;20039;-61
2022/08/27 09:53:27;;;;;;;33.63;14.07;;;;;;;19.56;100.00;100089.88;4956319;28;20043;-62
2022/08/27 09:56:02;;;;;;;33.45;15.10;;;;;;;19.53;100.00;100079.53;4956221;28;20036;-62
2022/08/27 09:58:45;;;;;;;33.17;14.48;;;;;;;19.55;100.00;100077.41;4956159;28;20043;-62
2022/08/27 10:01:25;;;;;;;35.60;14.85;;;;;;;19.53;100.00;100085.75;4954563;28;20039;-62
2022/08/27 10:04:06;;;;;;;38.92;15.45;;;;;;;19.56;100.00;100081.78;4956121;28;20039;-62
2022/08/27 10:06:32;;;;;;;31.85;13.98;;;;;;;19.56;100.00;100091.72;4954802;29;20051;-61
2022/08/27 10:09:17;;;;;;;36.50;15.73;;;;;;;19.48;100.00;100082.09;4955930;28;20043;-62
2022/08/27 10:11:51;;;;;;;36.22;15.13;;;;;;;19.58;100.00;100097.78;4956049;28;20404;-63
2022/08/27 10:14:40;;;;;;;35.13;15.05;;;;;;;19.51;100.00;100101.38;4956361;28;20125;-63
2022/08/27 10:17:24;;;;;;;40.33;15.05;;;;;;;19.51;100.00;100103.25;4955813;28;20046;-63
2022/08/27 10:19:56;;;;;;;36.33;15.25;;;;;;;19.49;100.00;100111.56;4955048;28;20039;-63
2022/08/27 10:22:30;;;;;;;38.03;15.27;;;;;;;19.46;100.00;100101.25;4955846;28;20042;-63
2022/08/27 10:25:00;;;;;;;36.35;15.30;;;;;;;19.45;100.00;100098.78;4954465;28;20047;-63
2022/08/27 10:27:31;;;;;;;37.67;15.85;;;;;;;19.48;100.00;100103.72;4955631;28;20047;-63
2022/08/27 10:32:33;;;;;;;38.35;16.27;;;;;;;19.51;100.00;100108.66;4915341;28;20462;-62
2022/08/27 10:35:08;;;;;;;39.72;16.98;;;;;;;19.57;100.00;100112.31;4917450;29;20076;-63
2022/08/27 10:37:47;;;;;;;43.70;16.13;;;;;;;19.54;100.00;100113.56;4917618;29;20050;-61
2022/08/27 10:40:15;;;;;;;37.15;15.05;;;;;;;19.57;100.00;100117.72;4917062;29;20028;-62
2022/08/27 10:42:48;;;;;;;40.75;16.27;;;;;;;19.58;100.00;100112.09;4917339;29;20083;-62
2022/08/27 10:45:43;;;;;;;37.25;15.65;;;;;;;19.56;100.00;100118.75;4917467;29;20028;-62
2022/08/27 10:48:13;;;;;;;36.90;15.95;;;;;;;19.46;100.00;100116.63;4916046;29;20092;-60
2022/08/27 10:50:53;;;;;;;39.00;16.02;;;;;;;19.50;100.00;100112.41;4916987;29;20409;-61
2022/08/27 10:53:47;;;;;;;39.55;16.23;;;;;;;19.48;100.00;100118.03;4917208;29;20513;-62
2022/08/27 10:56:44;;;;;;;36.47;14.95;;;;;;;19.42;100.00;100112.75;4914129;29;20052;-62
2022/08/27 10:59:57;;;;;;;41.50;15.52;;;;;;;19.47;100.00;100110.16;4914937;29;20103;-62
2022/08/27 11:02:40;;;;;;;38.92;16.75;;;;;;;19.45;100.00;100115.81;4900945;29;20079;-62
2022/08/27 11:05:31;;;;;;;39.85;16.25;;;;;;;19.35;100.00;100109.34;4917080;29;20032;-62
2022/08/27 11:08:31;;;;;;;39.03;15.82;;;;;;;19.31;100.00;100113.59;4914290;29;20052;-62
2022/08/27 11:11:03;;;;;;;37.47;15.27;;;;;;;19.27;100.00;100107.00;4912647;29;20083;-62
2022/08/27 11:13:38;;;;;;;38.97;16.33;;;;;;;19.34;100.00;100113.09;4916899;29;20509;-62
2022/08/27 11:16:51;;;;;;;42.70;14.70;;;;;;;19.27;100.00;100096.19;4916775;29;20068;-62
2022/08/27 11:19:29;;;;;;;38.00;15.75;;;;;;;19.31;100.00;100110.88;4911581;29;20052;-63
2022/08/27 11:22:22;;;;;;;46.10;18.48;;;;;;;19.35;100.00;100106.63;4910499;29;20525;-66
2022/08/27 11:25:25;;;;;;;54.95;21.50;;;;;;;19.38;100.00;100098.09;4915570;29;20159;-66
2022/08/27 11:27:55;;;;;;;59.70;23.17;;;;;;;19.39;100.00;100094.31;4916307;29;20032;-66
2022/08/27 11:30:24;;;;;;;40.20;15.98;;;;;;;19.38;100.00;100093.50;4914178;29;20095;-67
2022/08/27 11:33:28;;;;;;;48.72;18.52;;;;;;;19.40;100.00;100090.56;4916032;29;20116;-65
2022/08/27 11:36:16;;;;;;;44.97;16.30;;;;;;;19.44;100.00;100089.88;4916268;29;20028;-65
2022/08/27 11:38:47;;;;;;;47.00;17.70;;;;;;;19.38;100.00;100092.69;4916287;29;20482;-65
2022/08/27 11:41:27;;;;;;;38.13;16.25;;;;;;;19.39;100.00;100088.94;4915275;29;20179;-65
2022/08/27 11:43:53;;;;;;;36.80;15.25;;;;;;;19.35;100.00;100090.44;4913547;29;20040;-65
2022/08/27 11:46:25;;;;;;;35.25;15.23;;;;;;;19.27;100.00;100080.81;4914577;29;20024;-65
2022/08/27 11:48:59;;;;;;;38.22;17.15;;;;;;;19.27;100.00;100080.81;4912917;29;20079;-66
2022/08/27 11:51:36;;;;;;;41.58;15.95;;;;;;;19.33;100.00;100087.16;4915249;29;20346;-66
2022/08/27 11:54:06;;;;;;;40.80;14.77;;;;;;;19.34;100.00;100088.81;4912212;29;20111;-66
2022/08/27 11:56:35;;;;;;;37.63;15.57;;;;;;;19.24;100.00;100084.81;4912670;29;20055;-67
2022/08/27 11:59:09;;;;;;;34.80;14.75;;;;;;;19.27;100.00;100080.00;4904949;29;20040;-65
2022/08/27 12:01:35;;;;;;;46.05;17.02;;;;;;;19.29;100.00;100080.56;4905443;29;20374;-66
2022/08/27 12:04:06;;;;;;;50.53;22.13;;;;;;;19.31;100.00;100083.88;4906641;29;20028;-65
2022/08/27 12:06:41;;;;;;;37.50;16.13;;;;;;;19.29;100.00;100081.38;4906134;29;20398;-68
2022/08/27 12:09:19;;;;;;;36.28;14.88;;;;;;;19.23;100.00;100079.63;4904938;29;20044;-67
2022/08/27 12:12:21;;;;;;;38.20;14.52;;;;;;;19.15;100.00;100082.69;4904903;29;20041;-68
2022/08/27 12:15:12;;;;;;;33.95;14.63;;;;;;;19.20;100.00;100082.81;4906711;29;20036;-66
2022/08/27 12:18:08;;;;;;;45.10;15.85;;;;;;;19.16;100.00;100081.63;4897899;29;20549;-67
2022/08/27 12:20:52;;;;;;;34.97;14.32;;;;;;;19.20;100.00;100080.09;4905918;29;20526;-68
2022/08/27 12:23:48;;;;;;;43.03;15.25;;;;;;;19.19;100.00;100075.78;4908471;29;20028;-68
2022/08/27 12:26:30;;;;;;;40.95;16.65;;;;;;;19.25;100.00;100074.84;4906733;29;20382;-67
2022/08/27 12:29:17;;;;;;;42.55;15.90;;;;;;;19.21;100.00;100076.34;4904619;29;20074;-67
2022/08/27 12:31:45;;;;;;;;;;;;;;;19.22;100.00;100073.41;4906222;29;20040;-67
2022/08/27 12:34:17;;;;;;;39.58;15.65;;;;;;;19.16;100.00;100066.25;4905061;29;20284;-67
2022/08/27 12:36:46;;;;;;;37.92;15.75;;;;;;;19.22;100.00;100062.59;4906628;29;20043;-66
2022/08/27 12:39:18;;;;;;;36.92;16.05;;;;;;;19.23;100.00;100061.56;4913213;29;20454;-66
2022/08/27 12:41:47;;;;;;;39.40;15.95;;;;;;;19.25;100.00;100056.75;4914026;29;20035;-67
2022/08/27 12:44:22;;;;;;;42.85;16.55;;;;;;;19.29;100.00;100061.66;4909288;29;20063;-66
2022/08/27 12:46:51;;;;;;;40.60;16.75;;;;;;;19.30;100.00;100068.72;4905334;29;20557;-67
2022/08/27 12:49:19;;;;;;;41.03;16.48;;;;;;;19.36;100.00;100059.69;4905678;29;20056;-66
2022/08/27 12:51:45;;;;;;;46.42;17.23;;;;;;;19.42;100.00;100061.44;4907835;29;20106;-66
2022/08/27 12:54:45;;;;;;;37.58;16.15;;;;;;;19.47;100.00;100056.97;4910229;29;20063;-67
2022/08/27 12:57:23;;;;;;;42.70;15.57;;;;;;;19.57;100.00;100053.69;4906555;29;20044;-68
2022/08/27 12:59:54;;;;;;;43.22;15.82;;;;;;;19.61;100.00;100054.06;4905756;29;20028;-68
2022/08/27 13:02:39;;;;;;;41.75;15.52;;;;;;;19.68;100.00;100055.56;4905217;29;20483;-67
2022/08/27 13:05:06;;;;;;;38.38;15.52;;;;;;;19.69;100.00;100056.38;4906179;29;20040;-68
2022/08/27 13:07:37;;;;;;;46.07;16.73;;;;;;;19.81;100.00;100053.66;4904355;29;20024;-68
2022/08/27 13:10:26;;;;;;;45.97;17.58;;;;;;;19.87;100.00;100055.41;4903844;29;20040;-68
2022/08/27 13:13:10;;;;;;;39.17;15.88;;;;;;;19.86;100.00;100056.47;4896289;29;20112;-67
2022/08/27 13:15:35;;;;;;;38.80;16.25;;;;;;;19.89;100.00;100053.31;4904856;29;20497;-68
2022/08/27 13:18:04;;;;;;;41.40;16.40;;;;;;;19.91;100.00;100043.91;4915259;29;20119;-68
2022/08/27 13:20:31;;;;;;;43.97;17.52;;;;;;;20.07;100.00;100045.00;4914338;29;20039;-68
2022/08/27 13:22:56;;;;;;;47.15;16.92;;;;;;;20.03;100.00;100049.28;4914501;29;20048;-69
2022/08/27 13:25:33;;;;;;;39.00;16.63;;;;;;;20.05;100.00;100050.66;4915926;29;20207;-60
2022/08/27 13:31:09;;;;;;;37.65;15.23;;;;;;;20.17;100.00;100049.81;5090456;28;20332;-68
2022/08/27 13:33:37;;;;;;;36.10;14.82;;;;;;;20.16;100.00;100051.69;5088700;28;20114;-69
2022/08/27 13:36:05;;;;;;;;;;;;;;;20.16;100.00;100050.88;5089481;28;20032;-68
2022/08/27 13:38:33;;;;;;;40.53;16.05;;;;;;;20.20;100.00;100055.53;5088932;28;19916;-68
2022/08/27 13:41:00;;;;;;;36.60;16.15;;;;;;;20.18;100.00;100051.44;5087421;28;20401;-70
2022/08/27 13:43:41;;;;;;;38.78;15.57;;;;;;;20.19;100.00;100051.19;5088861;28;20036;-69
2022/08/27 13:46:11;;;;;;;38.15;15.90;;;;;;;20.17;100.00;100053.34;5088791;28;20033;-68
2022/08/27 13:48:42;;;;;;;35.67;14.75;;;;;;;20.21;100.00;100051.81;5088673;28;20051;-68
2022/08/27 13:51:09;;;;;;;39.00;15.10;;;;;;;20.23;100.00;100051.56;5088278;28;20727;-67
2022/08/27 13:56:26;;;;;;;36.60;15.52;;;;;;;20.27;100.00;100056.22;5088453;28;20028;-69
2022/08/27 13:58:51;;;;;;;44.85;17.15;;;;;;;20.24;100.00;100053.19;5088549;28;20069;-69
2022/08/27 14:01:29;;;;;;;38.60;16.13;;;;;;;20.30;100.00;100050.34;5088260;28;20439;-69
2022/08/27 14:04:00;;;;;;;40.15;15.23;;;;;;;20.37;100.00;100062.91;5088394;28;20119;-68
2022/08/27 14:06:46;;;;;;;41.58;16.45;;;;;;;20.36;100.00;100055.84;5088229;28;20043;-69
2022/08/27 14:09:22;;;;;;;43.33;16.98;;;;;;;20.35;100.00;100048.81;5087512;28;20481;-68
2022/08/27 14:11:48;;;;;;;36.35;14.68;;;;;;;20.34;100.00;100053.38;5088255;28;20119;-68
2022/08/27 14:14:16;;;;;;;35.70;15.32;;;;;;;20.44;100.00;100050.06;5088347;28;20178;-67
2022/08/27 14:16:42;;;;;;;42.70;16.80;;;;;;;20.44;100.00;100053.56;5088208;28;20093;-68
2022/08/27 14:19:24;;;;;;;39.30;16.10;;;;;;;20.49;100.00;100053.72;5087872;28;20111;-69
2022/08/27 14:21:50;;;;;;;39.25;15.65;;;;;;;20.57;100.00;100047.91;5088083;28;20036;-69
2022/08/27 14:24:16;;;;;;;40.30;16.50;;;;;;;20.63;100.00;100056.94;5088067;28;20047;-69
2022/08/27 14:26:41;;;;;;;36.42;16.05;;;;;;;20.63;100.00;100045.28;5088014;28;20036;-68
2022/08/27 14:29:07;;;;;;;39.83;17.00;;;;;;;20.69;100.00;100049.72;5087642;28;20401;-68
2022/08/27 14:31:32;;;;;;;34.88;15.70;;;;;;;20.77;100.00;100052.84;5087931;28;20115;-69
2022/08/27 14:33:58;;;;;;;34.30;15.68;;;;;;;20.86;100.00;100045.97;5087793;28;20115;-70
2022/08/27 14:36:28;;;;;;;41.42;15.90;;;;;;;20.99;100.00;100039.38;5087750;28;20398;-69
2022/08/27 14:38:54;;;;;;;40.00;17.80;;;;;;;21.12;100.00;100041.75;5087680;28;20396;-69
2022/08/27 14:41:20;;;;;;;41.55;16.05;;;;;;;21.25;100.00;100037.88;5080588;28;20098;-69
2022/08/27 14:43:46;;;;;;;32.15;14.63;;;;;;;21.33;100.00;100034.81;5074346;28;20036;-68
2022/08/27 14:46:34;;;;;;;38.83;15.60;;;;;;;21.52;100.00;100029.94;5074160;28;20477;-68
2022/08/27 14:49:06;;;;;;;38.35;14.88;;;;;;;21.84;100.00;100032.78;5073859;28;20493;-69
2022/08/27 14:51:34;;;;;;;34.35;14.98;;;;;;;21.98;100.00;100037.81;5073952;28;20043;-69
2022/08/27 14:54:00;;;;;;;28.77;13.10;;;;;;;22.19;100.00;100037.81;5074023;28;20408;-68
2022/08/27 14:56:26;;;;;;;32.60;14.65;;;;;;;22.25;100.00;100033.28;5073983;28;20052;-68
2022/08/27 14:58:52;;;;;;;33.78;13.75;;;;;;;22.37;99.92;100033.13;5073665;28;20108;-68
2022/08/27 15:01:28;;;;;;;28.40;13.30;;;;;;;22.53;99.88;100021.34;5073721;28;20048;-69
2022/08/27 15:03:54;;;;;;;31.88;14.20;;;;;;;22.56;98.63;100034.41;5073835;28;20390;-68
2022/08/27 15:06:22;;;;;;;30.53;15.63;;;;;;;22.60;92.81;100023.84;5073980;28;20034;-69
2022/08/27 15:08:48;;;;;;;29.30;14.35;;;;;;;22.74;94.80;100023.16;5073735;28;20089;-68
2022/08/27 15:11:20;;;;;;;31.77;14.82;;;;;;;22.71;94.42;100018.25;5074696;28;20047;-67
2022/08/27 15:13:45;;;;;;;26.35;12.93;;;;;;;22.84;97.04;100024.31;5074133;28;20040;-68
2022/08/27 15:16:13;;;;;;;27.98;13.70;;;;;;;22.92;97.73;100018.44;5072475;28;20123;-68
2022/08/27 15:18:39;;;;;;;27.75;11.98;;;;;;;22.92;94.46;100015.72;5073585;28;20089;-68
2022/08/27 15:21:04;;;;;;;30.90;12.43;;;;;;;22.88;93.63;100017.31;5073284;28;20549;-68
2022/08/27 15:23:30;;;;;;;29.52;13.82;;;;;;;22.87;90.66;100021.09;5073599;28;20127;-69
2022/08/27 15:25:55;;;;;;;30.30;13.98;;;;;;;22.78;88.56;100033.50;5073322;28;20090;-68
2022/08/27 15:28:21;;;;;;;25.30;13.00;;;;;;;22.81;91.05;100020.22;5073349;28;20166;-67
2022/08/27 15:30:46;;;;;;;24.02;13.00;;;;;;;22.82;89.23;100021.88;5072756;28;20109;-68
2022/08/27 15:33:12;;;;;;;25.92;12.57;;;;;;;22.86;91.02;100004.00;5073207;28;20165;-67
2022/08/27 15:35:37;;;;;;;24.05;12.02;;;;;;;22.94;91.05;100008.13;5073243;28;20040;-67
2022/08/27 15:38:02;;;;;;;21.67;10.60;;;;;;;22.95;89.80;100001.63;5073085;28;20477;-68
2022/08/27 15:40:33;;;;;;;26.98;12.82;;;;;;;22.91;88.69;100006.75;5072673;28;20083;-67
2022/08/27 15:43:01;;;;;;;23.25;11.40;;;;;;;22.96;88.15;100006.81;5073017;28;20099;-67
2022/08/27 15:45:28;;;;;;;26.40;12.57;;;;;;;22.99;88.16;100008.97;5072905;28;20203;-68
2022/08/27 15:47:55;;;;;;;27.83;12.15;;;;;;;23.02;88.16;100013.91;5072901;28;20115;-68
2022/08/27 15:50:21;;;;;;;22.90;11.60;;;;;;;23.01;86.75;100006.00;5072609;28;20048;-67
2022/08/27 15:52:48;;;;;;;22.23;11.30;;;;;;;23.07;86.17;100009.56;5071943;28;20648;-67